createdAt,value
2019-01-24T00:00:40.336Z,95.14
2019-01-24T00:01:40.809Z,95.11
2019-01-24T00:02:41.279Z,95.13
2019-01-24T00:03:41.751Z,95.13
2019-01-24T00:04:42.222Z,95.11
2019-01-24T00:05:42.695Z,95.13
2019-01-24T00:06:43.168Z,95.09
2019-01-24T00:07:43.637Z,95.09
2019-01-24T00:08:44.111Z,95.09
2019-01-24T00:09:44.582Z,95.08
2019-01-24T00:10:45.053Z,95.08
2019-01-24T00:11:45.528Z,95.08
2019-01-24T00:12:45.997Z,95.08
2019-01-24T00:13:46.468Z,95.08
2019-01-24T00:14:46.941Z,95.08
2019-01-24T00:15:47.413Z,95.07
2019-01-24T00:16:47.885Z,95.08
2019-01-24T00:17:48.356Z,95.07
2019-01-24T00:18:48.828Z,95.07
2019-01-24T00:19:49.303Z,95.07
2019-01-24T00:20:49.770Z,95.06
2019-01-24T00:21:50.242Z,95.06
2019-01-24T00:22:50.717Z,95.06
2019-01-24T00:23:51.186Z,95.06
2019-01-24T00:24:51.656Z,95.06
2019-01-24T00:25:52.129Z,95.06
2019-01-24T00:26:52.652Z,95.06
2019-01-24T00:27:53.074Z,95.06
2019-01-24T00:28:53.546Z,95.06
2019-01-24T00:29:54.017Z,95.05
2019-01-24T00:30:54.488Z,95.05
2019-01-24T00:31:54.959Z,95.05
2019-01-24T00:32:55.430Z,95.05
2019-01-24T00:33:55.903Z,95.05
2019-01-24T00:34:56.373Z,95.01
2019-01-24T00:35:56.845Z,95.03
2019-01-24T00:36:57.317Z,95.03
2019-01-24T00:37:57.789Z,95.03
2019-01-24T00:38:58.259Z,95.00
2019-01-24T00:39:58.732Z,95.00
2019-01-24T00:40:59.204Z,95.00
2019-01-24T00:41:59.674Z,95.00
2019-01-24T00:43:00.146Z,95.00
2019-01-24T00:44:00.619Z,95.00
2019-01-24T00:45:01.089Z,95.00
2019-01-24T00:46:01.562Z,95.00
2019-01-24T00:47:02.032Z,94.99
2019-01-24T00:48:02.506Z,94.99
2019-01-24T00:49:02.976Z,94.99
2019-01-24T00:50:03.447Z,94.99
2019-01-24T00:51:03.920Z,94.99
2019-01-24T00:52:04.391Z,94.99
2019-01-24T00:53:04.864Z,94.99
2019-01-24T00:54:05.333Z,94.97
2019-01-24T00:55:05.808Z,94.98
2019-01-24T00:56:06.277Z,94.98
2019-01-24T00:57:06.748Z,94.96
2019-01-24T00:58:07.218Z,94.98
2019-01-24T00:59:07.691Z,94.98
2019-01-24T01:00:08.163Z,94.98
2019-01-24T01:01:08.633Z,94.98
2019-01-24T01:02:09.110Z,94.98
2019-01-24T01:03:09.576Z,94.98
2019-01-24T01:04:10.050Z,94.97
2019-01-24T01:05:10.520Z,94.94
2019-01-24T01:06:10.998Z,94.95
2019-01-24T01:07:11.463Z,94.93
2019-01-24T01:08:11.934Z,94.93
2019-01-24T01:09:12.405Z,94.93
2019-01-24T01:10:12.875Z,94.93
2019-01-24T01:11:13.348Z,94.93
2019-01-24T01:12:13.821Z,94.93
2019-01-24T01:13:14.290Z,94.92
2019-01-24T01:14:14.763Z,94.92
2019-01-24T01:15:15.235Z,94.92
2019-01-24T01:16:15.726Z,94.92
2019-01-24T01:18:16.648Z,94.91
2019-01-24T01:19:17.123Z,94.91
2019-01-24T01:20:17.800Z,94.89
2019-01-24T01:21:18.063Z,94.91
2019-01-24T01:22:18.536Z,94.87
2019-01-24T01:23:19.005Z,94.90
2019-01-24T01:24:19.481Z,94.90
2019-01-24T01:25:19.948Z,94.90
2019-01-24T01:26:20.423Z,94.87
2019-01-24T01:27:20.890Z,94.86
2019-01-24T01:28:21.365Z,94.86
2019-01-24T01:29:21.835Z,94.86
2019-01-24T01:30:22.348Z,94.89
2019-01-24T01:31:22.779Z,94.86
2019-01-24T01:32:23.248Z,94.86
2019-01-24T01:33:23.719Z,94.87
2019-01-24T01:34:24.191Z,94.85
2019-01-24T01:35:24.662Z,94.84
2019-01-24T01:36:25.135Z,94.87
2019-01-24T01:37:25.612Z,94.85
2019-01-24T01:38:26.077Z,94.84
2019-01-24T01:39:26.548Z,94.84
2019-01-24T01:40:27.020Z,94.84
2019-01-24T01:41:27.492Z,94.84
2019-01-24T01:42:27.963Z,94.83
2019-01-24T01:43:28.436Z,94.83
2019-01-24T01:44:28.907Z,94.83
2019-01-24T01:45:29.378Z,94.83
2019-01-24T01:46:29.850Z,94.83
2019-01-24T01:47:30.319Z,94.83
2019-01-24T01:48:30.792Z,94.83
2019-01-24T01:49:31.264Z,94.82
2019-01-24T01:50:31.734Z,94.82
2019-01-24T01:51:32.205Z,94.78
2019-01-24T01:52:32.677Z,94.78
2019-01-24T01:53:33.148Z,94.80
2019-01-24T01:54:33.624Z,94.82
2019-01-24T01:55:34.090Z,94.82
2019-01-24T01:56:34.562Z,94.77
2019-01-24T01:57:35.035Z,94.77
2019-01-24T01:58:35.504Z,94.77
2019-01-24T01:59:35.978Z,94.77
2019-01-24T02:00:36.450Z,94.77
2019-01-24T02:01:36.922Z,94.79
2019-01-24T02:02:37.389Z,94.77
2019-01-24T02:03:37.862Z,94.77
2019-01-24T02:04:42.901Z,94.76
2019-01-24T02:05:38.805Z,94.77
2019-01-24T02:06:39.277Z,94.76
2019-01-24T02:07:39.750Z,94.76
2019-01-24T02:08:40.217Z,94.76
2019-01-24T02:09:40.693Z,94.76
2019-01-24T02:10:41.160Z,94.76
2019-01-24T02:11:41.632Z,94.76
2019-01-24T02:12:42.104Z,94.76
2019-01-24T02:13:42.575Z,94.73
2019-01-24T02:14:43.047Z,94.76
2019-01-24T02:15:43.516Z,94.75
2019-01-24T02:16:43.990Z,94.75
2019-01-24T02:17:44.462Z,94.71
2019-01-24T02:18:44.938Z,94.73
2019-01-24T02:19:45.401Z,94.71
2019-01-24T02:20:45.873Z,94.70
2019-01-24T02:21:46.347Z,94.74
2019-01-24T02:22:46.816Z,94.70
2019-01-24T02:23:47.287Z,94.72
2019-01-24T02:24:47.759Z,94.72
2019-01-24T02:25:48.234Z,94.70
2019-01-24T02:26:48.701Z,94.70
2019-01-24T02:27:49.171Z,94.70
2019-01-24T02:28:49.695Z,94.69
2019-01-24T02:29:50.116Z,94.69
2019-01-24T02:30:50.586Z,94.69
2019-01-24T02:31:51.062Z,94.69
2019-01-24T02:32:51.529Z,94.69
2019-01-24T02:33:52.002Z,94.68
2019-01-24T02:34:52.472Z,94.68
2019-01-24T02:35:52.943Z,94.68
2019-01-24T02:36:53.416Z,94.67
2019-01-24T02:37:54.092Z,94.68
2019-01-24T02:38:54.359Z,94.64
2019-01-24T02:39:54.828Z,94.68
2019-01-24T02:40:55.308Z,94.66
2019-01-24T02:41:55.772Z,94.65
2019-01-24T02:42:56.242Z,94.65
2019-01-24T02:43:56.712Z,94.65
2019-01-24T02:44:57.187Z,94.65
2019-01-24T02:45:57.664Z,94.63
2019-01-24T02:46:58.127Z,94.65
2019-01-24T02:47:58.599Z,94.63
2019-01-24T02:48:59.068Z,94.63
2019-01-24T02:49:59.540Z,94.62
2019-01-24T02:51:00.012Z,94.62
2019-01-24T02:52:00.489Z,94.62
2019-01-24T02:53:00.953Z,94.62
2019-01-24T02:54:01.477Z,94.62
2019-01-24T02:55:01.897Z,94.62
2019-01-24T02:56:02.368Z,94.62
2019-01-24T02:57:02.840Z,94.62
2019-01-24T02:58:03.312Z,94.62
2019-01-24T02:59:03.782Z,94.62
2019-01-24T03:00:04.251Z,94.62
2019-01-24T03:01:04.726Z,94.61
2019-01-24T03:02:05.195Z,94.61
2019-01-24T03:03:05.669Z,94.61
2019-01-24T03:04:06.138Z,94.58
2019-01-24T03:05:06.609Z,94.61
2019-01-24T03:06:07.081Z,94.59
2019-01-24T03:07:07.551Z,94.59
2019-01-24T03:08:08.022Z,94.60
2019-01-24T03:09:08.500Z,94.57
2019-01-24T03:10:08.972Z,94.59
2019-01-24T03:11:09.436Z,94.57
2019-01-24T03:12:09.906Z,94.57
2019-01-24T03:13:10.379Z,94.56
2019-01-24T03:14:10.948Z,94.56
2019-01-24T03:15:11.319Z,94.56
2019-01-24T03:16:11.797Z,94.56
2019-01-24T03:17:12.261Z,94.56
2019-01-24T03:18:12.733Z,94.56
2019-01-24T03:19:13.206Z,94.56
2019-01-24T03:20:13.673Z,94.55
2019-01-24T03:21:14.146Z,94.55
2019-01-24T03:22:14.623Z,94.55
2019-01-24T03:23:15.112Z,94.55
2019-01-24T03:24:15.621Z,94.55
2019-01-24T03:25:16.048Z,94.55
2019-01-24T03:26:16.591Z,94.55
2019-01-24T03:27:16.973Z,94.55
2019-01-24T03:28:17.467Z,94.52
2019-01-24T03:29:17.916Z,94.54
2019-01-24T03:30:18.389Z,94.54
2019-01-24T03:31:18.860Z,94.50
2019-01-24T03:32:19.330Z,94.51
2019-01-24T03:33:19.800Z,94.50
2019-01-24T03:34:20.270Z,94.50
2019-01-24T03:35:20.742Z,94.50
2019-01-24T03:36:21.214Z,94.50
2019-01-24T03:37:21.683Z,94.50
2019-01-24T03:38:22.155Z,94.49
2019-01-24T03:39:22.625Z,94.49
2019-01-24T03:40:23.096Z,94.49
2019-01-24T03:41:23.568Z,94.49
2019-01-24T03:42:24.038Z,94.49
2019-01-24T03:43:24.510Z,94.49
2019-01-24T03:44:25.182Z,94.48
2019-01-24T03:45:25.452Z,94.49
2019-01-24T03:46:25.923Z,94.49
2019-01-24T03:47:26.396Z,94.48
2019-01-24T03:48:26.872Z,94.48
2019-01-24T03:49:27.336Z,94.48
2019-01-24T03:50:27.810Z,94.48
2019-01-24T03:51:28.281Z,94.44
2019-01-24T03:52:28.749Z,94.48
2019-01-24T03:53:29.226Z,94.48
2019-01-24T03:54:29.694Z,94.46
2019-01-24T03:55:30.161Z,94.46
2019-01-24T03:56:30.634Z,94.46
2019-01-24T03:57:31.107Z,94.46
2019-01-24T03:58:31.577Z,94.43
2019-01-24T03:59:32.049Z,94.47
2019-01-24T04:00:32.517Z,94.43
2019-01-24T04:01:32.997Z,94.43
2019-01-24T04:02:33.460Z,94.43
2019-01-24T04:03:33.934Z,94.43
2019-01-24T04:04:34.405Z,94.43
2019-01-24T04:05:34.874Z,94.43
2019-01-24T04:06:35.347Z,94.43
2019-01-24T04:07:35.815Z,94.43
2019-01-24T04:08:36.287Z,94.42
2019-01-24T04:09:36.758Z,94.42
2019-01-24T04:10:37.229Z,94.42
2019-01-24T04:11:37.701Z,94.42
2019-01-24T04:12:38.174Z,94.42
2019-01-24T04:13:38.642Z,94.42
2019-01-24T04:14:39.119Z,94.41
2019-01-24T04:15:39.584Z,94.41
2019-01-24T04:16:40.058Z,94.42
2019-01-24T04:17:40.540Z,94.41
2019-01-24T04:18:40.997Z,94.41
2019-01-24T04:19:41.472Z,94.41
2019-01-24T04:20:41.940Z,94.39
2019-01-24T04:21:42.410Z,94.41
2019-01-24T04:22:42.882Z,94.37
2019-01-24T04:23:43.354Z,94.40
2019-01-24T04:24:43.824Z,94.39
2019-01-24T04:25:44.296Z,94.38
2019-01-24T04:26:44.767Z,94.36
2019-01-24T04:27:45.243Z,94.36
2019-01-24T04:28:45.707Z,94.36
2019-01-24T04:29:46.231Z,94.36
2019-01-24T04:30:46.653Z,94.36
2019-01-24T04:31:47.126Z,94.36
2019-01-24T04:32:47.626Z,94.35
2019-01-24T04:33:48.064Z,94.35
2019-01-24T04:34:48.538Z,94.35
2019-01-24T04:35:49.010Z,94.35
2019-01-24T04:36:49.478Z,94.35
2019-01-24T04:37:49.950Z,94.35
2019-01-24T04:38:50.421Z,94.35
2019-01-24T04:39:50.893Z,94.34
2019-01-24T04:40:51.366Z,94.35
2019-01-24T04:41:51.832Z,94.34
2019-01-24T04:42:52.306Z,94.35
2019-01-24T04:43:52.778Z,94.34
2019-01-24T04:44:53.256Z,94.34
2019-01-24T04:45:53.721Z,94.33
2019-01-24T04:46:54.191Z,94.33
2019-01-24T04:47:54.660Z,94.33
2019-01-24T04:48:55.131Z,94.34
2019-01-24T04:49:55.604Z,94.29
2019-01-24T04:50:56.075Z,94.33
2019-01-24T04:51:56.545Z,94.29
2019-01-24T04:52:57.016Z,94.33
2019-01-24T04:53:57.492Z,94.29
2019-01-24T04:54:57.959Z,94.33
2019-01-24T04:55:58.432Z,94.29
2019-01-24T04:56:58.906Z,94.31
2019-01-24T04:57:59.380Z,94.29
2019-01-24T04:58:59.845Z,94.28
2019-01-24T05:00:00.338Z,94.30
2019-01-24T05:01:00.785Z,94.30
2019-01-24T05:02:01.257Z,94.28
2019-01-24T05:03:01.765Z,94.28
2019-01-24T05:04:02.200Z,94.27
2019-01-24T05:05:02.671Z,94.28
2019-01-24T05:06:03.144Z,94.27
2019-01-24T05:07:03.617Z,94.27
2019-01-24T05:08:04.088Z,94.27
2019-01-24T05:09:04.552Z,94.27
2019-01-24T05:10:05.035Z,94.27
2019-01-24T05:11:05.497Z,94.28
2019-01-24T05:12:05.968Z,94.25
2019-01-24T05:13:06.439Z,94.27
2019-01-24T05:14:06.910Z,94.25
2019-01-24T05:15:07.686Z,94.27
2019-01-24T05:16:07.855Z,94.25
2019-01-24T05:17:08.323Z,94.27
2019-01-24T05:18:08.795Z,94.23
2019-01-24T05:19:09.266Z,94.26
2019-01-24T05:20:09.741Z,94.23
2019-01-24T05:21:10.212Z,94.23
2019-01-24T05:22:10.678Z,94.23
2019-01-24T05:23:11.152Z,94.22
2019-01-24T05:24:11.620Z,94.22
2019-01-24T05:25:12.097Z,94.22
2019-01-24T05:26:12.563Z,94.22
2019-01-24T05:27:13.033Z,94.22
2019-01-24T05:28:13.504Z,94.22
2019-01-24T05:29:13.974Z,94.22
2019-01-24T05:30:14.497Z,94.21
2019-01-24T05:31:14.917Z,94.21
2019-01-24T05:32:15.401Z,94.21
2019-01-24T05:34:16.331Z,94.20
2019-01-24T05:35:16.805Z,94.21
2019-01-24T05:36:17.273Z,94.20
2019-01-24T05:37:17.752Z,94.20
2019-01-24T05:38:18.363Z,94.20
2019-01-24T05:39:18.686Z,94.20
2019-01-24T05:40:19.165Z,94.20
2019-01-24T05:41:19.625Z,94.20
2019-01-24T05:42:20.099Z,94.19
2019-01-24T05:43:20.569Z,94.20
2019-01-24T05:44:21.041Z,94.19
2019-01-24T05:45:21.512Z,94.19
2019-01-24T05:46:21.989Z,94.15
2019-01-24T05:47:22.452Z,94.17
2019-01-24T05:48:22.927Z,94.17
2019-01-24T05:49:23.396Z,94.17
2019-01-24T05:50:24.573Z,94.15
2019-01-24T05:51:24.355Z,94.16
2019-01-24T05:52:24.807Z,94.16
2019-01-24T05:53:25.279Z,94.16
2019-01-24T05:54:25.752Z,94.14
2019-01-24T05:55:26.220Z,94.14
2019-01-24T05:56:26.691Z,94.14
2019-01-24T05:57:27.164Z,94.14
2019-01-24T05:58:27.634Z,94.13
2019-01-24T05:59:28.106Z,94.14
2019-01-24T06:00:28.576Z,94.14
2019-01-24T06:01:29.048Z,94.13
2019-01-24T06:02:29.522Z,94.13
2019-01-24T06:03:29.987Z,94.13
2019-01-24T06:04:30.466Z,94.12
2019-01-24T06:05:30.929Z,94.13
2019-01-24T06:06:31.404Z,94.13
2019-01-24T06:07:31.872Z,94.13
2019-01-24T06:08:32.344Z,94.12
2019-01-24T06:09:32.814Z,94.12
2019-01-24T06:10:33.285Z,94.12
2019-01-24T06:11:33.755Z,94.11
2019-01-24T06:12:34.234Z,94.10
2019-01-24T06:13:34.697Z,94.11
2019-01-24T06:14:35.169Z,94.11
2019-01-24T06:15:35.641Z,94.10
2019-01-24T06:16:36.115Z,94.11
2019-01-24T06:17:36.583Z,94.08
2019-01-24T06:18:37.052Z,94.11
2019-01-24T06:19:37.525Z,94.09
2019-01-24T06:20:37.995Z,94.07
2019-01-24T06:21:38.466Z,94.07
2019-01-24T06:22:38.936Z,94.07
2019-01-24T06:23:39.411Z,94.07
2019-01-24T06:24:39.880Z,94.07
2019-01-24T06:25:40.355Z,94.06
2019-01-24T06:26:40.821Z,94.06
2019-01-24T06:27:41.295Z,94.07
2019-01-24T06:28:41.764Z,94.06
2019-01-24T06:29:42.233Z,94.06
2019-01-24T06:30:42.704Z,94.06
2019-01-24T06:31:43.174Z,94.06
2019-01-24T06:32:43.647Z,94.06
2019-01-24T06:33:44.117Z,94.06
2019-01-24T06:34:44.588Z,94.06
2019-01-24T06:35:48.709Z,94.06
2019-01-24T06:36:45.530Z,94.06
2019-01-24T06:37:45.999Z,94.06
2019-01-24T06:38:46.470Z,94.06
2019-01-24T06:39:46.942Z,94.03
2019-01-24T06:40:47.417Z,94.01
2019-01-24T06:41:47.882Z,94.01
2019-01-24T06:42:48.355Z,94.03
2019-01-24T06:43:48.827Z,94.03
2019-01-24T06:44:49.297Z,94.01
2019-01-24T06:45:50.070Z,94.03
2019-01-24T06:46:50.237Z,94.01
2019-01-24T06:47:50.709Z,94.00
2019-01-24T06:48:51.180Z,94.00
2019-01-24T06:49:51.652Z,94.00
2019-01-24T06:50:52.122Z,94.00
2019-01-24T06:51:52.593Z,94.00
2019-01-24T06:52:53.063Z,94.00
2019-01-24T06:53:53.543Z,94.00
2019-01-24T06:54:54.006Z,94.00
2019-01-24T06:55:54.479Z,93.99
2019-01-24T06:56:54.951Z,94.00
2019-01-24T06:57:55.416Z,93.99
2019-01-24T06:58:55.888Z,93.99
2019-01-24T06:59:56.359Z,93.99
2019-01-24T07:00:56.831Z,93.99
2019-01-24T07:01:57.504Z,93.97
2019-01-24T07:02:57.773Z,93.98
2019-01-24T07:03:58.246Z,93.96
2019-01-24T07:04:58.714Z,93.99
2019-01-24T07:05:59.190Z,93.95
2019-01-24T07:06:59.658Z,93.98
2019-01-24T07:08:00.126Z,93.95
2019-01-24T07:09:00.613Z,93.98
2019-01-24T07:10:01.069Z,93.98
2019-01-24T07:11:01.538Z,93.96
2019-01-24T07:12:02.009Z,93.95
2019-01-24T07:13:03.925Z,93.94
2019-01-24T07:14:02.951Z,93.94
2019-01-24T07:15:03.422Z,93.94
2019-01-24T07:16:03.893Z,93.94
2019-01-24T07:17:04.364Z,93.94
2019-01-24T07:18:04.835Z,93.94
2019-01-24T07:19:05.306Z,93.94
2019-01-24T07:20:05.776Z,93.93
2019-01-24T07:21:06.247Z,93.93
2019-01-24T07:22:06.722Z,93.93
2019-01-24T07:23:07.191Z,93.93
2019-01-24T07:24:07.660Z,93.93
2019-01-24T07:25:08.132Z,93.93
2019-01-24T07:26:08.601Z,93.92
2019-01-24T07:27:09.073Z,93.92
2019-01-24T07:28:09.544Z,93.88
2019-01-24T07:29:10.015Z,93.91
2019-01-24T07:30:10.485Z,93.88
2019-01-24T07:31:11.008Z,93.88
2019-01-24T07:32:11.431Z,93.90
2019-01-24T07:33:11.899Z,93.92
2019-01-24T07:34:12.369Z,93.90
2019-01-24T07:35:12.843Z,93.88
2019-01-24T07:36:13.316Z,93.90
2019-01-24T07:37:13.784Z,93.90
2019-01-24T07:38:14.252Z,93.90
2019-01-24T07:39:14.724Z,93.88
2019-01-24T07:40:15.193Z,93.90
2019-01-24T07:41:15.667Z,93.88
2019-01-24T07:42:16.134Z,93.88
2019-01-24T07:43:16.607Z,93.87
2019-01-24T07:44:17.077Z,93.87
2019-01-24T07:45:17.549Z,93.87
2019-01-24T07:46:18.018Z,93.87
2019-01-24T07:47:18.489Z,93.87
2019-01-24T07:48:18.962Z,93.87
2019-01-24T07:49:19.431Z,93.87
2019-01-24T07:50:19.905Z,93.87
2019-01-24T07:51:20.373Z,93.87
2019-01-24T07:52:20.842Z,93.87
2019-01-24T07:53:21.314Z,93.83
2019-01-24T07:54:21.784Z,93.87
2019-01-24T07:55:22.258Z,93.86
2019-01-24T07:56:22.726Z,93.86
2019-01-24T07:57:23.198Z,93.86
2019-01-24T07:58:23.665Z,93.82
2019-01-24T07:59:24.138Z,93.83
2019-01-24T08:00:24.610Z,93.84
2019-01-24T08:01:25.131Z,93.84
2019-01-24T08:02:25.549Z,93.85
2019-01-24T08:03:26.021Z,93.82
2019-01-24T08:04:26.494Z,93.83
2019-01-24T08:05:26.965Z,93.82
2019-01-24T08:06:27.431Z,93.85
2019-01-24T08:07:28.105Z,93.81
2019-01-24T08:08:28.375Z,93.82
2019-01-24T08:09:28.846Z,93.81
2019-01-24T08:10:29.314Z,93.81
2019-01-24T08:11:29.786Z,93.81
2019-01-24T08:12:30.257Z,93.81
2019-01-24T08:13:30.727Z,93.81
2019-01-24T08:14:31.202Z,93.81
2019-01-24T08:15:31.668Z,93.80
2019-01-24T08:16:32.141Z,93.81
2019-01-24T08:17:32.609Z,93.81
2019-01-24T08:18:33.086Z,93.80
2019-01-24T08:19:33.554Z,93.81
2019-01-24T08:20:34.022Z,93.80
2019-01-24T08:21:34.494Z,93.80
2019-01-24T08:22:34.962Z,93.79
2019-01-24T08:23:35.437Z,93.80
2019-01-24T08:24:35.905Z,93.80
2019-01-24T08:25:36.375Z,93.78
2019-01-24T08:26:36.846Z,93.79
2019-01-24T08:27:37.317Z,93.79
2019-01-24T08:28:37.787Z,93.79
2019-01-24T08:29:38.260Z,93.79
2019-01-24T08:30:38.728Z,93.79
2019-01-24T08:31:39.200Z,93.79
2019-01-24T08:32:39.672Z,93.79
2019-01-24T08:33:40.141Z,93.77
2019-01-24T08:34:40.614Z,93.79
2019-01-24T08:35:41.082Z,93.79
2019-01-24T08:36:41.553Z,93.76
2019-01-24T08:37:42.023Z,93.75
2019-01-24T08:38:43.495Z,93.75
2019-01-24T08:39:42.965Z,93.75
2019-01-24T08:40:43.435Z,93.75
2019-01-24T08:41:43.907Z,93.75
2019-01-24T08:42:44.378Z,93.73
2019-01-24T08:43:44.848Z,93.75
2019-01-24T08:44:45.316Z,93.75
2019-01-24T08:45:45.789Z,93.75
2019-01-24T08:46:46.260Z,93.74
2019-01-24T08:47:46.729Z,93.75
2019-01-24T08:48:47.203Z,93.74
2019-01-24T08:49:47.670Z,93.75
2019-01-24T08:50:48.141Z,93.74
2019-01-24T08:51:48.612Z,93.70
2019-01-24T08:52:49.083Z,93.74
2019-01-24T08:53:49.553Z,93.74
2019-01-24T08:54:50.024Z,93.70
2019-01-24T08:55:50.493Z,93.74
2019-01-24T08:56:50.964Z,93.74
2019-01-24T08:57:51.436Z,93.74
2019-01-24T08:58:51.904Z,93.70
2019-01-24T08:59:52.378Z,93.74
2019-01-24T09:00:52.849Z,93.74
2019-01-24T09:01:53.318Z,93.74
2019-01-24T09:02:53.789Z,93.72
2019-01-24T09:03:54.264Z,93.70
2019-01-24T09:04:54.732Z,93.70
2019-01-24T09:05:55.200Z,93.69
2019-01-24T09:06:55.670Z,93.69
2019-01-24T09:07:56.140Z,93.72
2019-01-24T09:08:56.613Z,93.70
2019-01-24T09:09:57.084Z,93.70
2019-01-24T09:10:57.553Z,93.69
2019-01-24T09:11:58.022Z,93.69
2019-01-24T09:12:58.496Z,93.70
2019-01-24T09:13:58.965Z,93.69
2019-01-24T09:14:59.434Z,93.73
2019-01-24T09:15:59.906Z,93.73
2019-01-24T09:17:00.428Z,93.69
2019-01-24T09:18:00.848Z,93.69
2019-01-24T09:19:01.320Z,93.69
2019-01-24T09:20:01.790Z,93.69
2019-01-24T09:21:02.258Z,93.69
2019-01-24T09:22:02.728Z,93.69
2019-01-24T09:23:03.200Z,93.69
2019-01-24T09:24:03.669Z,93.68
2019-01-24T09:25:04.139Z,93.65
2019-01-24T09:26:04.612Z,93.68
2019-01-24T09:27:05.081Z,93.68
2019-01-24T09:28:05.552Z,93.69
2019-01-24T09:29:06.023Z,93.68
2019-01-24T09:30:06.497Z,93.68
2019-01-24T09:31:06.966Z,93.68
2019-01-24T09:32:07.435Z,93.68
2019-01-24T09:33:07.907Z,93.68
2019-01-24T09:34:08.379Z,93.68
2019-01-24T09:35:08.844Z,93.65
2019-01-24T09:36:09.316Z,93.64
2019-01-24T09:37:09.786Z,93.68
2019-01-24T09:38:10.259Z,93.66
2019-01-24T09:39:10.727Z,93.64
2019-01-24T09:40:11.199Z,93.64
2019-01-24T09:41:11.668Z,93.63
2019-01-24T09:42:12.192Z,93.64
2019-01-24T09:43:12.608Z,93.63
2019-01-24T09:44:13.084Z,93.65
2019-01-24T09:45:13.551Z,93.64
2019-01-24T09:46:14.026Z,93.64
2019-01-24T09:47:14.543Z,93.63
2019-01-24T09:48:14.964Z,93.63
2019-01-24T09:49:15.437Z,93.64
2019-01-24T09:50:15.905Z,93.63
2019-01-24T09:51:16.375Z,93.63
2019-01-24T09:52:16.844Z,93.63
2019-01-24T09:53:17.314Z,93.64
2019-01-24T09:54:17.786Z,93.61
2019-01-24T09:55:18.259Z,93.63
2019-01-24T09:56:18.726Z,93.63
2019-01-24T09:57:19.197Z,93.63
2019-01-24T09:58:19.669Z,93.61
2019-01-24T09:59:20.143Z,93.59
2019-01-24T10:00:20.609Z,93.61
2019-01-24T10:01:21.080Z,93.63
2019-01-24T10:02:21.772Z,93.59
2019-01-24T10:03:22.022Z,93.63
2019-01-24T10:04:22.495Z,93.62
2019-01-24T10:05:22.969Z,93.63
2019-01-24T10:06:23.435Z,93.59
2019-01-24T10:07:23.903Z,93.63
2019-01-24T10:08:24.374Z,93.59
2019-01-24T10:09:24.846Z,93.62
2019-01-24T10:10:25.318Z,93.62
2019-01-24T10:11:25.787Z,93.60
2019-01-24T10:12:26.256Z,93.59
2019-01-24T10:13:26.727Z,93.60
2019-01-24T10:14:27.201Z,93.59
2019-01-24T10:15:27.669Z,93.59
2019-01-24T10:16:28.139Z,93.59
2019-01-24T10:17:28.661Z,93.60
2019-01-24T10:18:29.082Z,93.59
2019-01-24T10:19:29.555Z,93.59
2019-01-24T10:20:30.021Z,93.59
2019-01-24T10:21:30.493Z,93.58
2019-01-24T10:22:30.964Z,93.59
2019-01-24T10:23:31.435Z,93.59
2019-01-24T10:24:31.905Z,93.59
2019-01-24T10:25:32.376Z,93.58
2019-01-24T10:26:33.048Z,93.58
2019-01-24T10:27:33.316Z,93.58
2019-01-24T10:28:33.787Z,93.57
2019-01-24T10:29:34.258Z,93.59
2019-01-24T10:30:34.729Z,93.58
2019-01-24T10:31:35.201Z,93.58
2019-01-24T10:32:35.676Z,93.58
2019-01-24T10:33:36.143Z,93.59
2019-01-24T10:34:36.613Z,93.58
2019-01-24T10:35:37.081Z,93.58
2019-01-24T10:36:42.959Z,93.58
2019-01-24T10:37:38.024Z,93.58
2019-01-24T10:38:38.495Z,93.55
2019-01-24T10:39:38.967Z,93.54
2019-01-24T10:40:39.436Z,93.56
2019-01-24T10:41:39.907Z,93.55
2019-01-24T10:42:40.384Z,93.58
2019-01-24T10:43:40.848Z,93.58
2019-01-24T10:44:41.319Z,93.54
2019-01-24T10:45:41.789Z,93.55
2019-01-24T10:46:42.262Z,93.54
2019-01-24T10:47:42.735Z,93.58
2019-01-24T10:48:43.202Z,93.58
2019-01-24T10:49:43.675Z,93.55
2019-01-24T10:50:44.145Z,93.56
2019-01-24T10:51:44.612Z,93.55
2019-01-24T10:52:45.085Z,93.55
2019-01-24T10:53:45.559Z,93.55
2019-01-24T10:54:46.027Z,93.54
2019-01-24T10:55:46.496Z,93.58
2019-01-24T10:56:46.967Z,93.54
2019-01-24T10:57:47.437Z,93.54
2019-01-24T10:58:47.908Z,93.58
2019-01-24T10:59:48.379Z,93.54
2019-01-24T11:00:48.850Z,93.53
2019-01-24T11:01:49.322Z,93.54
2019-01-24T11:02:49.795Z,93.58
2019-01-24T11:03:50.262Z,93.54
2019-01-24T11:04:50.732Z,93.55
2019-01-24T11:05:51.204Z,93.54
2019-01-24T11:06:51.678Z,93.51
2019-01-24T11:07:52.145Z,93.55
2019-01-24T11:08:52.615Z,93.54
2019-01-24T11:09:53.084Z,93.53
2019-01-24T11:10:53.558Z,93.54
2019-01-24T11:11:54.027Z,93.55
2019-01-24T11:12:54.497Z,93.51
2019-01-24T11:13:54.968Z,93.51
2019-01-24T11:14:55.440Z,93.55
2019-01-24T11:15:55.908Z,93.55
2019-01-24T11:16:56.382Z,93.51
2019-01-24T11:17:56.854Z,93.51
2019-01-24T11:18:57.334Z,93.55
2019-01-24T11:19:57.790Z,93.51
2019-01-24T11:20:58.261Z,93.51
2019-01-24T11:21:58.734Z,93.51
2019-01-24T11:22:59.204Z,93.51
2019-01-24T11:23:59.673Z,93.55
2019-01-24T11:25:00.206Z,93.53
2019-01-24T11:26:00.618Z,93.51
2019-01-24T11:27:01.086Z,93.53
2019-01-24T11:28:01.556Z,93.55
2019-01-24T11:29:02.028Z,93.51
2019-01-24T11:30:02.499Z,93.52
2019-01-24T11:31:02.969Z,93.52
2019-01-24T11:32:03.440Z,93.56
2019-01-24T11:33:03.962Z,93.52
2019-01-24T11:34:04.381Z,93.52
2019-01-24T11:35:04.851Z,93.54
2019-01-24T11:36:05.324Z,93.56
2019-01-24T11:37:05.792Z,93.52
2019-01-24T11:38:07.188Z,93.54
2019-01-24T11:39:06.737Z,93.53
2019-01-24T11:40:07.202Z,93.52
2019-01-24T11:41:07.675Z,93.53
2019-01-24T11:42:08.190Z,93.53
2019-01-24T11:43:08.616Z,93.52
2019-01-24T11:44:09.085Z,93.52
2019-01-24T11:45:09.556Z,93.54
2019-01-24T11:46:10.083Z,93.53
2019-01-24T11:47:10.499Z,93.52
2019-01-24T11:48:10.969Z,93.52
2019-01-24T11:49:11.442Z,93.53
2019-01-24T11:50:11.909Z,93.52
2019-01-24T11:51:12.379Z,93.53
2019-01-24T11:52:12.849Z,93.53
2019-01-24T11:53:13.321Z,93.53
2019-01-24T11:54:13.792Z,93.54
2019-01-24T11:55:14.263Z,93.53
2019-01-24T11:56:15.138Z,93.52
2019-01-24T11:57:15.262Z,93.52
2019-01-24T11:58:15.674Z,93.53
2019-01-24T11:59:16.162Z,93.53
2019-01-24T12:00:16.615Z,93.51
2019-01-24T12:01:19.896Z,93.53
2019-01-24T12:02:17.557Z,93.49
2019-01-24T12:03:18.084Z,93.52
2019-01-24T12:04:18.498Z,93.52
2019-01-24T12:05:18.967Z,93.53
2019-01-24T12:06:19.439Z,93.53
2019-01-24T12:07:19.909Z,93.51
2019-01-24T12:08:20.379Z,93.50
2019-01-24T12:09:20.851Z,93.52
2019-01-24T12:10:21.320Z,93.53
2019-01-24T12:11:21.791Z,93.53
2019-01-24T12:12:22.261Z,93.53
2019-01-24T12:13:22.733Z,93.51
2019-01-24T12:14:23.204Z,93.51
2019-01-24T12:15:23.675Z,93.51
2019-01-24T12:16:24.150Z,93.49
2019-01-24T12:17:24.858Z,93.53
2019-01-24T12:18:25.135Z,93.53
2019-01-24T12:19:25.556Z,93.53
2019-01-24T12:20:26.029Z,93.51
2019-01-24T12:21:26.500Z,93.51
2019-01-24T12:22:26.969Z,93.53
2019-01-24T12:23:27.437Z,93.49
2019-01-24T12:24:27.908Z,93.49
2019-01-24T12:25:28.379Z,93.51
2019-01-24T12:26:28.849Z,93.53
2019-01-24T12:27:29.321Z,93.52
2019-01-24T12:28:29.791Z,93.49
2019-01-24T12:29:30.260Z,93.49
2019-01-24T12:30:30.939Z,93.49
2019-01-24T12:31:31.202Z,93.49
2019-01-24T12:32:31.673Z,93.50
2019-01-24T12:33:32.194Z,93.49
2019-01-24T12:34:32.614Z,93.50
2019-01-24T12:35:33.085Z,93.50
2019-01-24T12:36:33.556Z,93.52
2019-01-24T12:37:34.028Z,93.50
2019-01-24T12:38:34.498Z,93.49
2019-01-24T12:39:34.968Z,93.50
2019-01-24T12:40:35.437Z,93.50
2019-01-24T12:41:35.910Z,93.51
2019-01-24T12:42:36.381Z,93.49
2019-01-24T12:43:36.852Z,93.50
2019-01-24T12:44:37.319Z,93.50
2019-01-24T12:45:37.791Z,93.50
2019-01-24T12:46:38.266Z,93.51
2019-01-24T12:47:38.733Z,93.51
2019-01-24T12:48:39.255Z,93.50
2019-01-24T12:49:39.673Z,93.51
2019-01-24T12:50:40.145Z,93.51
2019-01-24T12:51:40.617Z,93.51
2019-01-24T12:52:41.087Z,93.50
2019-01-24T12:53:41.558Z,93.50
2019-01-24T12:54:42.030Z,93.51
2019-01-24T12:55:42.498Z,93.51
2019-01-24T12:56:42.974Z,93.51
2019-01-24T12:58:43.911Z,93.51
2019-01-24T12:59:44.382Z,93.47
2019-01-24T13:00:44.852Z,93.51
2019-01-24T13:01:45.325Z,93.49